Time;durP1;ratioP1;P1;durP2;ratioP2;P2;SDS_P1;SDS_P2;PMS_P1;PMS_P2;Temp;Humidity;BMP_temperature;BMP_pressure;BME280_temperature;BME280_humidity;BME280_pressure;Samples;Min_cycle;Max_cycle;Signal;HPM_P1;HPM_P2
2022/10/16 00:01:31;;;;;;;17.90;8.93;;;;;;;12.50;92.45;100963.34;5010976;28;20156;-96
2022/10/16 00:03:58;;;;;;;18.35;9.30;;;;;;;12.50;92.36;100965.94;5011637;28;20129;-96
2022/10/16 00:06:27;;;;;;;19.10;8.80;;;;;;;12.48;92.45;100957.19;5026280;28;20483;-96
2022/10/16 00:08:55;;;;;;;18.40;8.52;;;;;;;12.48;92.45;100949.34;5026270;28;20042;-96
2022/10/16 00:11:29;;;;;;;19.63;8.88;;;;;;;12.45;92.54;100952.78;5010208;28;20030;-96
2022/10/16 00:14:10;;;;;;;17.67;8.77;;;;;;;12.43;92.52;100949.25;5022925;28;20061;-96
2022/10/16 00:16:49;;;;;;;17.08;8.38;;;;;;;12.44;92.70;100956.25;5028232;28;20041;-96
2022/10/16 00:19:15;;;;;;;21.42;8.60;;;;;;;12.44;92.72;100952.75;5011486;28;20029;-96
2022/10/16 00:21:43;;;;;;;17.75;8.98;;;;;;;12.43;92.49;100958.84;5009496;28;20029;-96
2022/10/16 00:24:15;;;;;;;19.40;8.93;;;;;;;12.41;92.52;100955.31;5011340;28;20030;-96
2022/10/16 00:26:43;;;;;;;17.88;8.50;;;;;;;12.41;92.77;100963.16;5013511;28;20040;-96
2022/10/16 00:29:09;;;;;;;16.38;8.55;;;;;;;12.40;92.80;100953.53;5011716;28;20037;-96
2022/10/16 00:31:37;;;;;;;17.40;8.68;;;;;;;12.39;93.07;100951.81;5026455;28;20108;-96
2022/10/16 00:34:03;;;;;;;15.73;7.50;;;;;;;12.39;92.93;100963.13;5030023;28;20026;-96
2022/10/16 00:36:49;;;;;;;17.05;7.88;;;;;;;12.37;92.73;100953.50;5010755;28;20037;-96
2022/10/16 00:39:17;;;;;;;12.57;7.55;;;;;;;12.39;92.80;100954.41;5011034;28;20034;-96
2022/10/16 00:41:43;;;;;;;18.50;8.05;;;;;;;12.33;92.65;100961.28;5011543;28;20022;-96
2022/10/16 00:44:46;;;;;;;15.48;7.60;;;;;;;12.34;92.82;100967.41;5009540;28;20040;-96
2022/10/16 00:47:22;;;;;;;16.55;7.82;;;;;;;12.28;92.94;100959.44;5011352;28;20049;-96
2022/10/16 00:50:02;;;;;;;15.45;7.82;;;;;;;12.27;93.31;100962.91;5011420;28;20022;-96
2022/10/16 00:52:38;;;;;;;20.27;7.75;;;;;;;12.27;93.24;100962.91;5009877;28;20120;-96
2022/10/16 00:55:08;;;;;;;16.35;7.68;;;;;;;12.27;93.48;100968.16;5010997;28;20065;-95
2022/10/16 00:57:33;;;;;;;16.55;7.50;;;;;;;12.25;93.35;100964.59;5010744;28;20033;-96
2022/10/16 01:00:00;;;;;;;15.75;7.53;;;;;;;12.22;93.47;100965.41;5010604;28;20029;-96
2022/10/16 01:02:25;;;;;;;17.60;7.22;;;;;;;12.22;93.37;100962.81;5012360;28;20033;-96
2022/10/16 01:04:56;;;;;;;14.45;7.32;;;;;;;12.22;93.54;100959.31;5011571;28;20087;-95
2022/10/16 01:08:01;;;;;;;19.75;7.22;;;;;;;12.22;93.42;100959.31;5032474;28;20037;-96
2022/10/16 01:10:56;;;;;;;;;;;;;;;;;;;;;
2022/10/16 01:13:34;;;;;;;14.52;7.95;;;;;;;12.20;93.46;100956.69;5011911;28;20044;-96
2022/10/16 01:16:11;;;;;;;15.45;7.32;;;;;;;12.17;93.86;100951.41;5009877;28;20487;-95
2022/10/16 01:18:49;;;;;;;15.15;7.47;;;;;;;12.16;93.68;100955.72;5008880;28;20032;-96
2022/10/16 01:21:42;;;;;;;15.13;7.78;;;;;;;12.18;93.62;100963.63;5009464;28;20034;-96
2022/10/16 01:24:37;;;;;;;15.40;8.07;;;;;;;12.16;93.74;100962.69;5008358;28;20029;-96
2022/10/16 01:27:18;;;;;;;14.15;7.82;;;;;;;12.13;93.97;100971.34;4998320;28;20041;-96
2022/10/16 01:30:01;;;;;;;14.93;8.35;;;;;;;12.14;94.19;100972.25;5009225;28;20117;-96
2022/10/16 01:32:38;;;;;;;15.57;7.55;;;;;;;12.14;94.05;100967.03;5001343;28;20072;-96
2022/10/16 01:35:27;;;;;;;;;;;;;;;;;;;;;
2022/10/16 01:38:01;;;;;;;13.77;7.00;;;;;;;12.11;94.34;100959.13;5007836;28;20476;-96
2022/10/16 01:40:34;;;;;;;17.10;7.55;;;;;;;12.11;94.62;100956.53;5003947;28;20527;-96
2022/10/16 01:43:07;;;;;;;14.88;7.22;;;;;;;12.12;94.50;100958.25;5009686;28;20064;-96
2022/10/16 01:45:41;;;;;;;17.15;7.50;;;;;;;12.12;94.55;100973.94;5008693;28;20052;-96
2022/10/16 01:48:11;;;;;;;14.43;6.90;;;;;;;12.11;94.54;100962.63;5033880;28;20030;-96
2022/10/16 01:50:42;;;;;;;14.63;7.47;;;;;;;12.11;94.51;100954.78;5007997;28;20033;-96
2022/10/16 01:53:15;;;;;;;16.42;7.10;;;;;;;12.11;94.80;100960.00;5006944;28;20073;-96
2022/10/16 01:55:45;;;;;;;14.77;6.97;;;;;;;12.11;94.67;100952.16;5009049;28;20030;-96
2022/10/16 01:58:23;;;;;;;14.43;6.25;;;;;;;12.12;94.36;100956.56;5033677;28;20034;-96
2022/10/16 02:00:58;;;;;;;13.68;6.70;;;;;;;12.14;94.46;100967.03;5009111;28;20111;-96
2022/10/16 02:03:26;;;;;;;14.10;6.53;;;;;;;12.12;94.39;100956.56;5009837;28;20044;-96
2022/10/16 02:05:58;;;;;;;12.55;5.97;;;;;;;12.12;94.57;100958.25;5010251;28;20025;-96
2022/10/16 02:08:40;;;;;;;13.60;6.75;;;;;;;12.12;94.54;100960.88;5009557;28;20415;-96
2022/10/16 02:11:14;;;;;;;15.90;6.47;;;;;;;12.15;94.23;100974.88;5009289;28;20030;-96
2022/10/16 02:13:55;;;;;;;13.93;6.35;;;;;;;12.14;94.25;100973.13;5009208;28;20041;-96
2022/10/16 02:16:29;;;;;;;13.05;6.20;;;;;;;12.15;94.37;100968.75;4996760;28;20029;-96
2022/10/16 02:19:04;;;;;;;15.38;6.63;;;;;;;12.15;94.11;100969.66;5009291;28;20026;-96
2022/10/16 02:21:51;;;;;;;14.63;6.97;;;;;;;12.16;93.82;100966.19;5007823;28;20042;-96
2022/10/16 02:24:34;;;;;;;13.77;6.53;;;;;;;12.14;93.79;100965.28;5005461;28;20042;-95
2022/10/16 02:27:10;;;;;;;16.55;6.47;;;;;;;12.16;93.94;100965.31;5005588;28;20128;-96
2022/10/16 02:29:59;;;;;;;15.82;6.45;;;;;;;12.16;93.79;100971.41;5019928;28;20041;-96
2022/10/16 02:32:32;;;;;;;16.80;6.50;;;;;;;12.15;93.69;100966.16;5019134;28;20045;-95
2022/10/16 02:35:02;;;;;;;13.40;6.05;;;;;;;12.13;93.84;100962.66;5004581;28;20066;-96
2022/10/16 02:37:28;;;;;;;;;;;;;;;12.18;93.05;100966.25;5021681;28;20022;-96
2022/10/16 02:40:02;;;;;;;12.15;5.50;;;;;;;12.12;93.78;100968.72;5005158;28;19925;-96
2022/10/16 02:42:41;;;;;;;13.43;5.72;;;;;;;12.10;93.69;100976.53;5006933;28;20018;-96
2022/10/16 02:45:26;;;;;;;10.25;5.45;;;;;;;12.09;93.76;100974.75;5008233;28;20129;-96
2022/10/16 02:47:52;;;;;;;13.65;5.90;;;;;;;12.08;93.88;100978.22;5008929;28;20080;-96
2022/10/16 02:50:17;;;;;;;12.82;6.03;;;;;;;12.07;93.86;100970.38;5009249;28;20033;-96
2022/10/16 02:52:46;;;;;;;13.00;5.80;;;;;;;12.06;93.80;100966.84;5008467;28;20029;-96
2022/10/16 02:55:12;;;;;;;13.18;5.57;;;;;;;12.05;93.74;100969.44;5009281;28;20068;-96
2022/10/16 02:57:46;;;;;;;15.27;6.22;;;;;;;12.03;94.06;100956.34;5009729;28;20439;-96
2022/10/16 03:00:15;;;;;;;11.50;5.80;;;;;;;12.01;93.95;100960.69;5009725;28;20057;-96
2022/10/16 03:02:44;;;;;;;11.90;5.50;;;;;;;12.01;94.15;100960.69;5007227;28;20479;-96
2022/10/16 03:05:12;;;;;;;14.13;6.43;;;;;;;12.00;94.09;100970.22;5009282;28;20034;-96
2022/10/16 03:07:53;;;;;;;11.25;5.63;;;;;;;11.99;94.13;100967.59;5008096;28;20022;-96
2022/10/16 03:10:27;;;;;;;12.43;5.85;;;;;;;11.98;94.04;100968.47;5008971;28;20505;-96
2022/10/16 03:13:01;;;;;;;12.52;5.20;;;;;;;11.96;94.25;100971.03;5008279;28;20041;-96
2022/10/16 03:15:29;;;;;;;13.95;5.40;;;;;;;11.94;94.50;100970.13;5010837;28;20022;-96
2022/10/16 03:17:58;;;;;;;10.82;5.18;;;;;;;11.94;94.49;100967.50;5008932;28;20026;-96
2022/10/16 03:20:27;;;;;;;12.77;5.53;;;;;;;11.95;94.36;100971.00;5008454;28;20268;-96
2022/10/16 03:22:53;;;;;;;10.55;5.20;;;;;;;11.96;94.60;100986.72;5008869;28;20040;-96
2022/10/16 03:25:21;;;;;;;11.30;5.20;;;;;;;11.95;94.63;100987.56;5010485;28;20120;-96
2022/10/16 03:27:50;;;;;;;13.00;5.67;;;;;;;11.94;95.00;100982.31;5047025;28;20103;-96
2022/10/16 03:30:16;;;;;;;11.77;5.50;;;;;;;11.92;94.79;101000.53;5030598;28;20387;-96
2022/10/16 03:32:46;;;;;;;13.23;5.25;;;;;;;11.92;94.75;100994.41;5031162;28;20031;-95
2022/10/16 03:35:29;;;;;;;13.05;5.78;;;;;;;11.92;95.05;101005.75;5034690;28;20025;-96
2022/10/16 03:38:02;;;;;;;12.43;5.10;;;;;;;11.92;95.05;101003.13;5031617;28;20032;-96
2022/10/16 03:40:33;;;;;;;12.13;5.25;;;;;;;11.93;95.08;100999.69;5018649;28;20021;-96
2022/10/16 03:42:59;;;;;;;9.63;4.88;;;;;;;11.93;95.07;101004.91;5031115;28;20040;-96
2022/10/16 03:45:27;;;;;;;11.82;5.22;;;;;;;11.93;95.05;101006.59;5029946;28;20497;-96
2022/10/16 03:47:55;;;;;;;14.40;5.28;;;;;;;11.92;95.06;101005.75;5033331;28;20052;-96
2022/10/16 03:50:24;;;;;;;14.43;5.25;;;;;;;11.94;94.99;101006.66;5039452;28;20514;-96
2022/10/16 03:52:55;;;;;;;17.40;5.68;;;;;;;11.93;95.30;101012.72;5052785;28;20037;-96
2022/10/16 03:55:26;;;;;;;12.60;4.90;;;;;;;11.91;95.25;101003.97;5032792;28;20024;-96
2022/10/16 03:57:56;;;;;;;10.68;5.00;;;;;;;11.92;95.16;101012.66;5032856;28;20029;-96
2022/10/16 04:00:22;;;;;;;13.07;4.97;;;;;;;11.90;95.27;101015.25;5033767;28;20175;-96
2022/10/16 04:02:57;;;;;;;11.32;5.28;;;;;;;11.91;95.46;101019.63;5035280;28;20107;-96
2022/10/16 04:05:25;;;;;;;12.00;6.05;;;;;;;11.90;95.59;101020.47;5031015;28;20024;-96
2022/10/16 04:07:50;;;;;;;12.10;5.53;;;;;;;11.90;95.69;101017.00;5031444;28;20028;-96
2022/10/16 04:10:16;;;;;;;12.63;5.43;;;;;;;11.89;95.36;101016.13;5044859;28;20013;-96
2022/10/16 04:12:42;;;;;;;14.63;6.35;;;;;;;11.90;95.62;101025.69;5033255;28;20027;-96
2022/10/16 04:15:08;;;;;;;12.88;6.75;;;;;;;11.91;95.39;101022.25;5050491;28;20044;-96
2022/10/16 04:17:48;;;;;;;13.60;6.80;;;;;;;11.89;95.97;101023.97;5032130;28;20025;-96
2022/10/16 04:20:17;;;;;;;14.00;6.53;;;;;;;11.90;95.79;101022.22;5034661;28;20021;-96
2022/10/16 04:23:02;;;;;;;14.38;7.43;;;;;;;11.93;95.69;101024.88;5033541;28;20033;-95
2022/10/16 04:25:36;;;;;;;12.63;6.63;;;;;;;11.92;95.89;101024.03;5050831;28;20395;-96
2022/10/16 04:28:02;;;;;;;13.52;6.53;;;;;;;11.92;95.99;101026.63;5042419;28;20212;-96
2022/10/16 04:30:33;;;;;;;13.30;6.43;;;;;;;11.92;95.79;101024.03;5011374;28;20056;-96
2022/10/16 04:33:01;;;;;;;13.98;6.38;;;;;;;11.94;95.74;101019.72;5012428;28;20030;-96
2022/10/16 04:35:41;;;;;;;13.52;7.07;;;;;;;11.96;96.06;101030.19;5011704;28;20024;-96
2022/10/16 04:38:22;;;;;;;;;;;;;;;12.02;94.98;101034.69;5012082;28;20026;-96
2022/10/16 04:40:56;;;;;;;13.25;6.03;;;;;;;12.00;95.81;101037.25;5012906;28;19918;-96
2022/10/16 04:43:29;;;;;;;15.05;6.20;;;;;;;11.97;96.03;101035.47;5010708;28;20029;-96
2022/10/16 04:45:56;;;;;;;12.85;6.18;;;;;;;11.98;95.68;101045.06;5010190;28;20116;-96
2022/10/16 04:48:27;;;;;;;14.75;6.25;;;;;;;11.97;95.84;101050.25;5010640;28;20057;-96
2022/10/16 04:50:58;;;;;;;16.33;6.32;;;;;;;11.96;96.15;101049.38;5011033;28;20030;-96
2022/10/16 04:53:44;;;;;;;17.73;6.53;;;;;;;11.96;96.00;101052.00;5010933;28;20034;-96
2022/10/16 04:56:12;;;;;;;13.88;6.10;;;;;;;11.97;95.96;101053.75;5010085;28;20158;-96
2022/10/16 04:58:42;;;;;;;12.32;6.50;;;;;;;11.96;95.95;101048.47;5028874;28;20128;-96
2022/10/16 05:01:10;;;;;;;14.50;6.43;;;;;;;11.93;96.03;101059.75;5009332;28;20033;-96
2022/10/16 05:03:38;;;;;;;14.13;6.00;;;;;;;11.93;96.33;101070.19;5010008;28;20032;-96
2022/10/16 05:06:07;;;;;;;14.10;6.35;;;;;;;11.92;96.24;101068.41;5008956;28;20049;-96
2022/10/16 05:08:35;;;;;;;13.95;6.55;;;;;;;11.93;96.50;101078.00;5010634;28;20029;-96
2022/10/16 05:11:01;;;;;;;13.77;6.50;;;;;;;11.94;96.77;101079.78;5010894;28;20048;-96
2022/10/16 05:13:34;;;;;;;15.45;7.45;;;;;;;11.92;96.67;101081.47;5009996;28;20499;-96
2022/10/16 05:16:03;;;;;;;15.40;6.43;;;;;;;11.92;96.40;101084.06;5009621;28;20087;-95
2022/10/16 05:18:28;;;;;;;18.90;7.25;;;;;;;11.92;96.73;101078.84;5010001;28;20025;-95
2022/10/16 05:20:57;;;;;;;15.93;6.68;;;;;;;11.89;96.94;101076.19;5009948;28;20034;-95
2022/10/16 05:23:25;;;;;;;16.25;6.90;;;;;;;11.90;96.94;101077.06;5009622;28;20046;-95
2022/10/16 05:26:03;;;;;;;14.52;6.60;;;;;;;11.90;96.75;101077.91;5001410;28;20034;-95
2022/10/16 05:29:00;;;;;;;15.18;6.22;;;;;;;11.89;97.04;101078.78;5020376;28;20042;-95
2022/10/16 05:31:29;;;;;;;15.88;6.00;;;;;;;11.90;97.05;101092.72;5009592;28;20030;-95
2022/10/16 05:34:01;;;;;;;16.95;7.00;;;;;;;11.90;97.21;101096.19;5007319;28;20026;-95
2022/10/16 05:36:27;;;;;;;13.95;6.40;;;;;;;11.88;97.09;101099.66;5009376;28;20488;-96
2022/10/16 05:38:52;;;;;;;18.70;6.38;;;;;;;11.87;97.14;101098.75;5028061;28;20040;-96
2022/10/16 05:41:26;;;;;;;14.65;6.55;;;;;;;11.88;97.28;101110.09;5008858;28;20037;-96
2022/10/16 05:44:03;;;;;;;15.05;6.47;;;;;;;11.86;97.41;101104.84;5008274;28;20284;-96
2022/10/16 05:46:32;;;;;;;15.85;7.10;;;;;;;11.84;97.02;101119.56;5008893;28;20112;-96
2022/10/16 05:48:58;;;;;;;15.85;6.65;;;;;;;11.84;97.20;101127.41;5019984;28;20070;-96
2022/10/16 05:51:27;;;;;;;17.42;6.57;;;;;;;11.84;97.57;101130.00;5009443;28;20112;-96
2022/10/16 05:53:57;;;;;;;15.25;7.03;;;;;;;11.84;97.34;101140.47;5017549;28;20077;-96
2022/10/16 05:56:23;;;;;;;18.48;7.50;;;;;;;11.82;97.37;101139.56;5003271;28;20049;-95
2022/10/16 05:59:00;;;;;;;21.48;6.97;;;;;;;11.81;97.51;101149.09;5009688;28;20127;-96
2022/10/16 06:01:28;;;;;;;18.42;7.05;;;;;;;11.82;97.38;101155.22;5008573;28;20084;-96
2022/10/16 06:03:53;;;;;;;14.45;6.88;;;;;;;11.79;97.27;101158.63;5004548;28;20034;-96
2022/10/16 06:06:25;;;;;;;15.85;6.85;;;;;;;11.78;97.70;101156.84;5009954;28;20022;-96
2022/10/16 06:08:57;;;;;;;15.02;6.70;;;;;;;11.79;97.31;101168.22;5022110;28;20034;-96
2022/10/16 06:11:26;;;;;;;20.58;6.82;;;;;;;11.78;97.55;101176.88;5012905;28;20029;-96
2022/10/16 06:13:56;;;;;;;16.80;7.10;;;;;;;11.78;97.64;101177.75;5013128;28;20033;-96
2022/10/16 06:16:22;;;;;;;18.17;7.05;;;;;;;11.79;97.62;101178.66;5009711;28;20022;-96
2022/10/16 06:18:54;;;;;;;17.60;7.20;;;;;;;11.78;97.72;101182.09;5009318;28;20123;-96
2022/10/16 06:21:24;;;;;;;15.77;6.32;;;;;;;11.76;97.82;101189.00;5008753;28;20034;-96
2022/10/16 06:23:59;;;;;;;18.67;7.05;;;;;;;11.77;97.99;101196.84;5006783;28;20034;-96
2022/10/16 06:26:32;;;;;;;16.40;6.32;;;;;;;11.76;98.16;101192.50;5012522;28;20045;-96
2022/10/16 06:28:59;;;;;;;14.00;6.63;;;;;;;11.77;97.50;101198.59;5046803;28;20049;-96
2022/10/16 06:31:30;;;;;;;13.63;6.50;;;;;;;11.75;97.53;101198.56;5037594;28;20109;-96
2022/10/16 06:33:59;;;;;;;18.08;6.65;;;;;;;11.75;98.03;101197.69;5027120;28;20025;-96
2022/10/16 06:36:35;;;;;;;18.10;6.72;;;;;;;11.76;97.99;101202.03;5023958;28;20641;-96
2022/10/16 06:39:00;;;;;;;17.48;6.45;;;;;;;11.75;98.15;101213.34;5024952;28;20100;-96
2022/10/16 06:41:33;;;;;;;14.63;6.53;;;;;;;11.75;98.03;101213.34;5016785;28;20168;-96
2022/10/16 06:44:08;;;;;;;13.13;6.07;;;;;;;11.75;98.02;101218.56;5027542;28;20116;-96
2022/10/16 06:46:36;;;;;;;16.58;6.80;;;;;;;11.72;98.38;101218.50;5028380;28;20036;-96
2022/10/16 06:49:01;;;;;;;14.90;6.53;;;;;;;11.75;98.97;101227.28;5023754;28;20025;-96
2022/10/16 06:51:31;;;;;;;16.45;6.35;;;;;;;11.74;98.53;101229.84;5028752;28;20029;-96
2022/10/16 06:54:03;;;;;;;15.95;6.70;;;;;;;11.77;98.76;101241.22;5025955;28;20098;-96
2022/10/16 06:56:45;;;;;;;13.90;6.07;;;;;;;11.80;98.66;101235.22;5026034;28;20040;-96
2022/10/16 06:59:23;;;;;;;14.35;6.35;;;;;;;11.84;99.15;101244.91;5028605;28;20028;-96
2022/10/16 07:01:54;;;;;;;15.57;6.10;;;;;;;11.87;98.92;101244.09;5029336;28;20028;-96
2022/10/16 07:04:20;;;;;;;18.05;6.30;;;;;;;11.89;99.15;101245.00;5027835;28;20037;-96
2022/10/16 07:06:54;;;;;;;16.30;6.07;;;;;;;11.94;98.91;101241.69;5027607;28;20379;-96
2022/10/16 07:09:19;;;;;;;17.17;6.55;;;;;;;11.96;98.77;101255.69;5028304;28;20079;-96
2022/10/16 07:11:45;;;;;;;14.60;5.93;;;;;;;11.98;98.81;101259.22;5029074;28;20033;-96
2022/10/16 07:14:19;;;;;;;13.57;5.82;;;;;;;12.02;98.91;101264.50;5045601;28;20497;-96
2022/10/16 07:16:51;;;;;;;15.30;5.85;;;;;;;12.03;98.99;101261.94;5022616;28;20046;-96
2022/10/16 07:19:21;;;;;;;14.27;6.35;;;;;;;12.05;98.56;101268.09;5027931;28;20526;-96
2022/10/16 07:21:49;;;;;;;16.38;6.32;;;;;;;12.07;98.63;101268.13;5028950;28;20513;-96
2022/10/16 07:24:22;;;;;;;13.85;6.00;;;;;;;12.09;98.91;101279.47;5047167;28;20033;-96
2022/10/16 07:26:48;;;;;;;16.70;5.70;;;;;;;12.13;98.60;101289.16;5020350;28;20069;-96
2022/10/16 07:29:19;;;;;;;11.20;5.20;;;;;;;12.17;98.70;101289.25;5070029;23;20095;-69
2022/10/16 07:31:46;;;;;;;15.50;6.28;;;;;;;12.23;98.56;101296.38;5064769;28;20111;-69
2022/10/16 07:34:13;;;;;;;15.15;5.97;;;;;;;12.25;98.27;101309.47;5064589;28;20093;-69
2022/10/16 07:36:39;;;;;;;16.35;5.88;;;;;;;12.28;98.52;101313.06;5068696;28;20115;-69
2022/10/16 07:39:04;;;;;;;12.95;6.03;;;;;;;12.32;98.41;101314.88;5068823;28;20763;-69
2022/10/16 07:41:32;;;;;;;13.93;5.93;;;;;;;12.38;98.21;101315.88;5069942;28;20479;-69
2022/10/16 07:43:59;;;;;;;13.68;5.28;;;;;;;12.43;98.23;101320.38;5068900;28;20103;-68
2022/10/16 07:46:26;;;;;;;13.45;5.45;;;;;;;12.47;98.03;101321.31;5068917;28;20028;-68
2022/10/16 07:48:51;;;;;;;11.38;5.70;;;;;;;12.54;98.26;101323.22;5070046;28;20032;-69
2022/10/16 07:51:20;;;;;;;14.45;6.00;;;;;;;12.60;97.95;101328.63;5069327;28;20527;-68
2022/10/16 07:53:46;;;;;;;16.35;6.13;;;;;;;12.68;97.17;101331.41;5067572;28;20468;-69
2022/10/16 07:56:16;;;;;;;17.33;5.70;;;;;;;12.73;97.71;101348.09;5068909;28;20035;-69
2022/10/16 07:58:41;;;;;;;20.08;5.90;;;;;;;12.80;97.17;101341.25;5067250;28;20433;-71
2022/10/16 08:01:09;;;;;;;15.68;5.80;;;;;;;12.83;96.76;101342.22;5068671;28;20028;-71
2022/10/16 08:03:35;;;;;;;13.32;6.00;;;;;;;12.86;96.47;101347.50;5067702;28;20029;-70
2022/10/16 08:06:01;;;;;;;16.58;6.18;;;;;;;12.91;96.61;101338.88;5065804;28;20039;-71
2022/10/16 08:08:27;;;;;;;13.93;6.05;;;;;;;12.95;96.72;101351.19;5059819;28;20082;-72
2022/10/16 08:10:53;;;;;;;15.57;5.97;;;;;;;12.97;95.74;101344.25;5062431;28;20067;-71
2022/10/16 08:13:18;;;;;;;13.80;5.90;;;;;;;13.01;96.17;101357.41;5062564;28;20120;-72
2022/10/16 08:15:44;;;;;;;13.63;5.93;;;;;;;13.04;95.96;101367.94;5067047;28;20051;-71
2022/10/16 08:18:11;;;;;;;13.52;5.68;;;;;;;13.05;95.50;101369.72;5065363;28;20097;-71
2022/10/16 08:20:37;;;;;;;11.55;5.82;;;;;;;13.10;95.14;101374.16;5065038;28;20074;-71
2022/10/16 08:23:02;;;;;;;15.77;5.80;;;;;;;13.11;95.04;101366.34;5066105;28;20483;-72
2022/10/16 08:25:28;;;;;;;12.13;5.60;;;;;;;13.12;95.18;101375.06;5082118;28;20522;-71
2022/10/16 08:27:54;;;;;;;14.23;5.65;;;;;;;13.15;95.35;101380.38;5063137;28;20083;-69
2022/10/16 08:30:21;;;;;;;16.33;5.88;;;;;;;13.19;95.00;101390.06;5066182;28;20025;-69
2022/10/16 08:32:46;;;;;;;15.82;6.03;;;;;;;13.23;94.56;101395.38;5068752;28;20028;-68
2022/10/16 08:35:13;;;;;;;13.32;5.53;;;;;;;13.27;94.89;101385.88;5070234;28;20040;-68
2022/10/16 08:37:38;;;;;;;15.65;6.25;;;;;;;13.31;94.46;101395.56;5070722;28;20039;-69
2022/10/16 08:40:06;;;;;;;12.68;5.35;;;;;;;13.36;94.52;101396.56;5067597;28;20071;-69
2022/10/16 08:42:57;;;;;;;14.55;5.97;;;;;;;13.43;94.36;101409.81;5065863;28;20028;-69
2022/10/16 08:45:47;;;;;;;13.55;6.10;;;;;;;13.47;93.71;101398.50;5058118;28;20448;-69
2022/10/16 08:48:27;;;;;;;15.82;6.03;;;;;;;13.54;93.15;101410.88;5060550;28;20052;-69
2022/10/16 08:50:53;;;;;;;15.23;5.53;;;;;;;13.57;92.94;101410.97;5061182;28;20033;-66
2022/10/16 08:53:26;;;;;;;17.65;6.03;;;;;;;13.59;92.57;101413.63;5068712;28;20035;-66
2022/10/16 08:55:53;;;;;;;18.38;6.15;;;;;;;13.60;92.55;101411.03;5067707;28;20081;-66
2022/10/16 08:58:21;;;;;;;18.70;5.97;;;;;;;13.64;92.21;101412.81;5067622;28;20304;-66
2022/10/16 09:00:50;;;;;;;16.50;5.78;;;;;;;13.69;92.61;101421.69;5067927;28;20040;-66
2022/10/16 09:03:33;;;;;;;16.20;6.07;;;;;;;13.73;91.50;101415.66;5068042;28;20024;-66
2022/10/16 09:06:20;;;;;;;16.83;5.53;;;;;;;13.76;90.87;101422.69;5068915;28;20033;-66
2022/10/16 09:09:26;;;;;;;15.07;5.30;;;;;;;13.83;91.22;101428.91;5069102;28;20480;-66
2022/10/16 09:12:03;;;;;;;12.27;4.90;;;;;;;13.88;91.59;101427.28;5058335;28;20035;-66
2022/10/16 09:14:36;;;;;;;15.20;4.65;;;;;;;13.91;91.06;101428.22;5068983;28;20065;-66
2022/10/16 09:17:14;;;;;;;11.93;5.40;;;;;;;13.94;90.75;101437.88;5070696;28;20071;-66
2022/10/16 09:19:49;;;;;;;14.32;4.07;;;;;;;13.97;89.93;101432.69;5084757;28;20029;-66
2022/10/16 09:22:16;;;;;;;12.77;4.35;;;;;;;14.02;90.05;101436.28;5070286;28;20024;-66
2022/10/16 09:24:41;;;;;;;15.48;4.55;;;;;;;14.04;89.04;101428.47;5070412;28;20040;-66
2022/10/16 09:27:11;;;;;;;10.98;3.72;;;;;;;14.08;88.45;101439.03;5070443;28;20063;-66
2022/10/16 09:29:37;;;;;;;20.40;5.53;;;;;;;14.14;89.16;101447.88;5069545;28;20051;-66
2022/10/16 09:32:16;;;;;;;11.00;4.60;;;;;;;14.18;89.18;101444.41;5070057;28;20051;-66
2022/10/16 09:34:47;;;;;;;11.70;3.95;;;;;;;14.18;88.44;101447.94;5068660;28;20028;-66
2022/10/16 09:37:14;;;;;;;16.88;4.47;;;;;;;14.23;88.44;101448.03;5070780;28;20020;-66
2022/10/16 09:39:47;;;;;;;11.82;4.28;;;;;;;14.26;88.03;101446.34;5070458;28;20033;-66
2022/10/16 09:42:17;;;;;;;15.30;3.90;;;;;;;14.29;87.62;101442.00;5069356;28;20025;-66
2022/10/16 09:44:47;;;;;;;12.32;4.60;;;;;;;14.32;87.24;101450.78;5069056;28;20031;-66
2022/10/16 09:47:20;;;;;;;20.70;4.57;;;;;;;14.36;85.89;101449.13;5068490;28;20020;-66
2022/10/16 09:50:18;;;;;;;17.23;4.90;;;;;;;14.40;86.52;101459.69;5070048;28;20029;-66
2022/10/16 09:52:43;;;;;;;17.02;4.18;;;;;;;14.42;87.09;101452.75;5059727;28;20051;-66
2022/10/16 09:55:15;;;;;;;14.38;4.20;;;;;;;14.44;86.36;101453.66;5069791;28;20051;-66
2022/10/16 09:57:50;;;;;;;22.77;4.63;;;;;;;14.49;86.25;101463.34;5069104;28;20017;-67
2022/10/16 10:00:16;;;;;;;21.25;4.82;;;;;;;14.55;86.94;101466.06;5069566;28;20025;-66
2022/10/16 10:02:41;;;;;;;16.35;4.40;;;;;;;14.63;87.16;101464.50;5067999;28;20021;-66
2022/10/16 10:05:21;;;;;;;17.55;4.45;;;;;;;14.70;86.72;101452.34;5067740;28;20082;-66
2022/10/16 10:08:06;;;;;;;21.90;5.38;;;;;;;14.76;84.84;101462.97;5069068;28;20020;-66
2022/10/16 10:10:34;;;;;;;21.95;5.10;;;;;;;14.84;84.58;101461.31;5069535;28;20028;-66
2022/10/16 10:13:00;;;;;;;14.13;4.37;;;;;;;14.87;84.30;101456.13;5069320;28;20043;-67
2022/10/16 10:15:29;;;;;;;25.40;4.93;;;;;;;14.89;84.04;101459.66;5069469;28;20036;-66
2022/10/16 10:17:57;;;;;;;20.98;4.57;;;;;;;14.94;83.92;101468.47;5070350;28;20056;-66
2022/10/16 10:20:34;;;;;;;16.15;5.00;;;;;;;15.05;84.30;101476.53;5068067;28;20040;-66
2022/10/16 10:23:01;;;;;;;16.30;4.70;;;;;;;15.12;82.84;101472.28;5069546;28;20032;-66
2022/10/16 10:25:38;;;;;;;17.95;4.70;;;;;;;15.12;82.31;101478.38;5069255;28;20028;-66
2022/10/16 10:28:13;;;;;;;21.00;5.20;;;;;;;15.18;81.70;101489.81;5062561;28;20193;-66
2022/10/16 10:30:44;;;;;;;18.77;5.60;;;;;;;15.23;81.64;101485.53;5069297;28;20082;-66
2022/10/16 10:33:36;;;;;;;18.75;5.43;;;;;;;15.34;82.14;101489.22;5069405;28;20083;-66
2022/10/16 10:36:13;;;;;;;20.00;5.50;;;;;;;15.52;81.77;101487.69;5068965;28;20041;-67
2022/10/16 10:38:47;;;;;;;28.33;5.90;;;;;;;15.68;80.40;101487.03;5069135;28;20396;-66
2022/10/16 10:41:27;;;;;;;17.23;5.00;;;;;;;15.73;79.99;101489.72;5067810;28;20033;-67
2022/10/16 10:44:16;;;;;;;23.92;4.88;;;;;;;15.72;80.00;101486.22;5069383;28;20115;-66
2022/10/16 10:46:51;;;;;;;16.23;4.88;;;;;;;15.78;77.90;101490.66;5069261;28;20032;-66
2022/10/16 10:49:38;;;;;;;21.52;4.95;;;;;;;15.95;78.23;101493.53;5069327;28;20024;-66
2022/10/16 10:52:19;;;;;;;18.30;5.10;;;;;;;16.13;76.66;101496.38;5067429;28;20082;-66
2022/10/16 10:54:54;;;;;;;15.48;5.20;;;;;;;16.30;76.67;101490.41;5063528;28;20511;-70
2022/10/16 10:57:42;;;;;;;18.90;4.70;;;;;;;16.46;77.02;101497.56;5076432;28;20078;-71
2022/10/16 11:00:25;;;;;;;22.17;5.10;;;;;;;16.63;74.63;101496.88;5062664;28;20020;-69
2022/10/16 11:03:04;;;;;;;18.55;5.10;;;;;;;16.76;73.59;101495.22;5065036;28;20052;-71
2022/10/16 11:05:43;;;;;;;24.33;5.88;;;;;;;16.88;74.51;101494.47;5065918;28;20021;-72
2022/10/16 11:08:31;;;;;;;14.32;5.05;;;;;;;16.99;75.76;101498.09;5053837;28;20031;-72
2022/10/16 11:11:16;;;;;;;16.10;4.72;;;;;;;17.06;73.88;101502.53;5061851;28;20102;-71
2022/10/16 11:13:59;;;;;;;25.20;5.60;;;;;;;17.17;73.83;101498.19;5066763;28;20032;-72
2022/10/16 11:16:53;;;;;;;20.70;4.68;;;;;;;17.16;72.14;101501.72;5064850;28;20043;-72
2022/10/16 11:19:35;;;;;;;24.38;5.18;;;;;;;17.13;71.31;101503.44;5059045;28;20020;-72
2022/10/16 11:22:36;;;;;;;17.63;4.32;;;;;;;17.09;73.61;101501.66;5064304;28;20028;-72
2022/10/16 11:25:20;;;;;;;22.75;4.85;;;;;;;16.96;72.38;101511.19;5055891;28;20047;-72
2022/10/16 11:28:20;;;;;;;18.95;5.00;;;;;;;16.99;73.77;101498.09;5068800;28;20028;-72
2022/10/16 11:30:52;;;;;;;23.42;5.20;;;;;;;17.09;70.33;101499.91;5062438;28;20055;-72
2022/10/16 11:33:17;;;;;;;19.05;4.82;;;;;;;17.12;70.53;101499.94;5065725;28;20032;-72
2022/10/16 11:35:47;;;;;;;16.63;4.70;;;;;;;17.17;70.97;101503.47;5070116;28;20032;-72
2022/10/16 11:38:29;;;;;;;23.63;5.43;;;;;;;17.29;71.90;101504.41;5074738;28;20377;-72
2022/10/16 11:41:00;;;;;;;18.58;4.50;;;;;;;17.35;68.73;101505.34;5065523;28;20028;-71
2022/10/16 11:43:37;;;;;;;16.58;4.55;;;;;;;17.42;69.15;101503.59;5064248;28;20082;-71
2022/10/16 11:46:11;;;;;;;15.73;4.72;;;;;;;17.35;67.37;101513.25;5068849;28;20151;-72